首页
METAR-TAF:

METAR-TAF

机场 :

迪戈加西亚岛, 英屬印度洋領地

纬度: 07-18S, 经度: 072-24E, 海拔: 1米

当前天气观测

该预报发布于17分钟前的01:55 UTC
风速18节,风向东南,有时为24节阵风
温度 26°C
湿度 94%
气压 1012 hPa
能见度10公里或以上
少量云层高于2000英尺
散云层高于22000英尺

METAR: FJDG 220155Z 14018G24KT 9999 FEW020 SCT220 26/25 A2987 RMK SLP112 T02590251

时间: 08:12 (02:12 UTC)

预报

该预报发布于47分钟前的01:25 UTC
预报有效从22日的 01点(UTC)到 23日的 07点(UTC)
风速18节,风向东南,有时为20节阵风
能见度10公里或以上
少量云层高于2000英尺
散云层高于25000英尺
短暂存在
从 22日的 01点(UTC)到 22日的 03点(UTC)
风速15节,风向东转东南,有时为25节阵风
短暂存在
从 22日的 03点(UTC)到 22日的 09点(UTC)
风速15节,风向东转东南,有时为25节阵风
能見度: 8000
少量云层高于1500英尺
散云层高于3000英尺
阵雨
成为
从 22日的 12点(UTC)到 22日的 13点(UTC)
风速9节,风向南转南东
能见度10公里或以上
散云层高于4000英尺
散云层高于7000英尺

TAF: FJDG 220125Z 2201/2307 14018G20KT 9999 FEW020 SCT250 QNH2980INS TEMPO 2201/2203 12015G25KT TEMPO 2203/2209 12015G25KT 8000 SHRA FEW015 SCT030 BECMG 2212/2213 15009KT 9999 SCT040 SCT070 QNH2985INS TX30/2208Z TN23/2222Z

超过4000个机场的气象观测和天气预报(METAR&TAF报告)。

可查询的气象台以黄色和红色小点在地图上表示。

将鼠标移到小点上方,可查看气象台名称。

然后点击查看天气观测和预报。

如需切换地图:点击带黑十字的绿色按钮放大地图;点击带横线的绿色按钮缩小地图;或者点击绿色箭头查看邻近地区的地图。


METAR-TAF: